Time;durP1;ratioP1;P1;durP2;ratioP2;P2;SDS_P1;SDS_P2;PMS_P1;PMS_P2;Temp;Humidity;BMP_temperature;BMP_pressure;BME280_temperature;BME280_humidity;BME280_pressure;Samples;Min_cycle;Max_cycle;Signal;HPM_P1;HPM_P2
2024/02/20 00:01:06;;;;;;;26.58;4.65;;;8.10;99.90;;;;;;5093024;28;20024;-90
2024/02/20 00:03:32;;;;;;;37.50;4.07;;;8.10;99.90;;;;;;5096008;28;20558;-89
2024/02/20 00:05:57;;;;;;;35.75;3.97;;;8.10;99.90;;;;;;5096128;28;20029;-89
2024/02/20 00:08:25;;;;;;;24.60;4.47;;;8.00;99.90;;;;;;5096190;28;20024;-90
2024/02/20 00:10:51;;;;;;;38.00;4.60;;;8.00;99.90;;;;;;5079087;28;20020;-91
2024/02/20 00:13:17;;;;;;;40.38;4.65;;;8.00;99.90;;;;;;5095153;28;20131;-90
2024/02/20 00:15:43;;;;;;;35.15;5.63;;;8.00;99.90;;;;;;5095439;28;20481;-90
2024/02/20 00:18:10;;;;;;;43.60;6.63;;;8.00;99.90;;;;;;5095781;28;20039;-90
2024/02/20 00:20:35;;;;;;;27.27;4.47;;;8.00;99.90;;;;;;5095592;28;20392;-89
2024/02/20 00:23:01;;;;;;;21.30;3.55;;;8.00;99.90;;;;;;5079049;28;20032;-90
2024/02/20 00:25:27;;;;;;;27.70;4.50;;;7.90;99.90;;;;;;5078665;28;20036;-90
2024/02/20 00:27:53;;;;;;;33.80;4.63;;;7.90;99.90;;;;;;5095735;28;20028;-89
2024/02/20 00:30:18;;;;;;;28.08;4.10;;;7.90;99.90;;;;;;5095578;28;20032;-90
2024/02/20 00:32:44;;;;;;;27.30;4.60;;;7.90;99.90;;;;;;5094922;28;20040;-89
2024/02/20 00:35:10;;;;;;;29.48;3.80;;;7.80;99.90;;;;;;5096616;28;20048;-89
2024/02/20 00:37:36;;;;;;;28.25;3.45;;;7.80;99.90;;;;;;5095294;28;20027;-90
2024/02/20 00:40:03;;;;;;;30.95;4.85;;;7.80;99.90;;;;;;5078325;28;20027;-90
2024/02/20 00:42:30;;;;;;;29.15;3.80;;;7.80;99.90;;;;;;5094678;28;20436;-89
2024/02/20 00:44:55;;;;;;;32.95;4.43;;;7.80;99.90;;;;;;5094744;28;20044;-89
2024/02/20 00:47:22;;;;;;;28.67;3.95;;;7.80;99.90;;;;;;5096493;28;20382;-89
2024/02/20 00:49:47;;;;;;;23.25;3.88;;;7.80;99.90;;;;;;5094860;28;20043;-89
2024/02/20 00:52:14;;;;;;;35.42;4.78;;;7.80;99.90;;;;;;5095024;28;20180;-89
2024/02/20 00:54:41;;;;;;;37.13;4.55;;;7.80;99.90;;;;;;5078134;28;20036;-89
2024/02/20 00:57:09;;;;;;;29.83;3.78;;;7.80;99.90;;;;;;5061691;28;20034;-90
2024/02/20 00:59:34;;;;;;;35.03;4.13;;;7.80;99.90;;;;;;5094686;28;20028;-89
2024/02/20 01:02:00;;;;;;;34.60;4.63;;;7.80;99.90;;;;;;5077907;28;20028;-89
2024/02/20 01:04:26;;;;;;;38.85;4.20;;;7.70;99.90;;;;;;5094479;28;20489;-88
2024/02/20 01:06:52;;;;;;;38.83;6.18;;;7.70;99.90;;;;;;5094598;28;20027;-89
2024/02/20 01:09:17;;;;;;;28.90;4.00;;;7.70;99.90;;;;;;5077923;28;20156;-89
2024/02/20 01:11:43;;;;;;;28.50;3.92;;;7.70;99.90;;;;;;5094587;28;20072;-88
2024/02/20 01:14:09;;;;;;;28.02;4.15;;;7.60;99.90;;;;;;5094608;28;20024;-89
2024/02/20 01:16:34;;;;;;;37.72;4.45;;;7.60;99.90;;;;;;5094495;28;20020;-89
2024/02/20 01:19:00;;;;;;;28.83;3.80;;;7.60;99.90;;;;;;5093370;28;20027;-89
2024/02/20 01:21:26;;;;;;;24.33;4.07;;;7.60;99.90;;;;;;5094027;28;20042;-89
2024/02/20 01:23:51;;;;;;;25.25;3.63;;;7.50;99.90;;;;;;5078008;28;20040;-89
2024/02/20 01:26:17;;;;;;;33.40;4.15;;;7.50;99.90;;;;;;5094499;28;20453;-88
2024/02/20 01:28:43;;;;;;;40.67;5.03;;;7.40;99.90;;;;;;5079728;28;20059;-89
2024/02/20 01:31:16;;;;;;;34.92;4.82;;;7.40;99.90;;;;;;5095468;28;20024;-89
2024/02/20 01:36:33;;;;;;;35.17;5.20;;;7.30;99.90;;;;;;5144308;23;20045;-90
2024/02/20 01:38:58;;;;;;;30.00;4.35;;;7.30;99.90;;;;;;5067111;28;20059;-90
2024/02/20 01:41:27;;;;;;;43.35;6.50;;;7.30;99.90;;;;;;5064475;28;20472;-90
2024/02/20 01:43:52;;;;;;;33.75;5.22;;;7.30;99.90;;;;;;5063964;28;20063;-89
2024/02/20 01:46:21;;;;;;;31.92;4.43;;;7.30;99.90;;;;;;5065942;28;20481;-89
2024/02/20 01:48:47;;;;;;;38.17;4.53;;;7.20;99.90;;;;;;5065397;28;20050;-88
2024/02/20 01:51:14;;;;;;;31.95;5.82;;;7.20;99.90;;;;;;5064681;28;20042;-90
2024/02/20 01:53:40;;;;;;;42.08;5.80;;;7.20;99.90;;;;;;5063112;28;20020;-89
2024/02/20 01:56:07;;;;;;;47.50;6.25;;;7.20;99.90;;;;;;5065202;28;20545;-88
2024/02/20 01:58:33;;;;;;;24.40;4.60;;;7.20;99.90;;;;;;5083699;28;20032;-89
2024/02/20 02:00:59;;;;;;;23.58;4.10;;;7.20;99.90;;;;;;5065346;28;20020;-88
2024/02/20 02:03:25;;;;;;;27.88;5.22;;;7.20;99.90;;;;;;5060800;28;20064;-88
2024/02/20 02:05:51;;;;;;;42.92;6.22;;;7.20;99.90;;;;;;5059979;28;20032;-88
2024/02/20 02:08:17;;;;;;;35.65;5.47;;;7.20;99.90;;;;;;5059717;28;20127;-89
2024/02/20 02:10:44;;;;;;;36.10;5.03;;;7.20;99.90;;;;;;5059104;28;20032;-90
2024/02/20 02:13:10;;;;;;;41.83;7.63;;;7.10;99.90;;;;;;5058466;28;20454;-89
2024/02/20 02:15:36;;;;;;;47.45;7.22;;;7.10;99.90;;;;;;5058737;28;20028;-89
2024/02/20 02:18:03;;;;;;;27.00;4.60;;;7.10;99.90;;;;;;5057629;28;20481;-89
2024/02/20 02:20:29;;;;;;;38.60;7.03;;;7.10;99.90;;;;;;5058728;28;20020;-89
2024/02/20 02:22:54;;;;;;;30.35;5.65;;;7.10;99.90;;;;;;5057741;28;20089;-90
2024/02/20 02:25:20;;;;;;;33.88;5.00;;;7.00;99.90;;;;;;5057516;28;20035;-88
2024/02/20 02:27:47;;;;;;;35.15;8.13;;;7.00;99.90;;;;;;5057748;28;20387;-90
2024/02/20 02:30:14;;;;;;;30.85;4.90;;;7.00;99.90;;;;;;5058061;28;20025;-90
2024/02/20 02:32:40;;;;;;;35.17;5.35;;;7.00;99.90;;;;;;5057509;28;20044;-90
2024/02/20 02:35:09;;;;;;;38.83;6.63;;;7.00;99.90;;;;;;5057214;28;20119;-90
2024/02/20 02:37:38;;;;;;;38.92;5.57;;;7.00;99.90;;;;;;5056561;28;20109;-90
2024/02/20 02:40:05;;;;;;;25.95;4.30;;;7.00;99.90;;;;;;5056829;28;20063;-89
2024/02/20 02:42:31;;;;;;;44.22;5.80;;;7.10;99.90;;;;;;5056456;28;20031;-89
2024/02/20 02:44:56;;;;;;;30.13;5.65;;;7.00;99.90;;;;;;5057168;28;20059;-89
2024/02/20 02:47:22;;;;;;;42.03;6.15;;;7.00;99.90;;;;;;5056511;28;20111;-89
2024/02/20 02:49:48;;;;;;;34.75;5.03;;;7.10;99.90;;;;;;5056669;28;20028;-89
2024/02/20 02:52:15;;;;;;;36.20;5.68;;;7.00;99.90;;;;;;5056727;28;20017;-89
2024/02/20 02:54:40;;;;;;;43.42;6.65;;;7.00;99.90;;;;;;5057027;28;20032;-88
2024/02/20 02:57:06;;;;;;;49.28;6.10;;;7.00;99.90;;;;;;5056868;28;20034;-89
2024/02/20 02:59:32;;;;;;;34.35;6.40;;;7.00;99.90;;;;;;5056715;28;20024;-89
2024/02/20 03:01:58;;;;;;;37.38;6.20;;;7.00;99.90;;;;;;5056977;28;20082;-89
2024/02/20 03:04:24;;;;;;;36.80;6.07;;;7.00;99.90;;;;;;5056516;28;20149;-88
2024/02/20 03:06:50;;;;;;;26.55;6.35;;;7.00;99.90;;;;;;5056670;28;20031;-90
2024/02/20 03:09:18;;;;;;;28.88;4.78;;;7.00;99.90;;;;;;5057863;28;20127;-90
2024/02/20 03:11:44;;;;;;;42.50;6.47;;;7.00;99.90;;;;;;5043554;28;20032;-88
2024/02/20 03:14:10;;;;;;;35.00;5.05;;;7.00;99.90;;;;;;5058541;28;20365;-88
2024/02/20 03:16:36;;;;;;;31.75;4.97;;;7.00;99.90;;;;;;5057283;28;20029;-88
2024/02/20 03:19:03;;;;;;;40.70;6.88;;;7.00;99.90;;;;;;5057884;28;20029;-87
2024/02/20 03:21:30;;;;;;;25.20;5.05;;;7.00;99.90;;;;;;5060051;28;20052;-90
2024/02/20 03:23:55;;;;;;;32.38;4.95;;;7.00;99.90;;;;;;5078156;28;20036;-88
2024/02/20 03:26:21;;;;;;;30.83;4.93;;;7.00;99.90;;;;;;5059790;28;20036;-88
2024/02/20 03:28:47;;;;;;;27.40;4.45;;;7.00;99.90;;;;;;5057847;28;20059;-89
2024/02/20 03:31:13;;;;;;;32.75;5.50;;;7.00;99.90;;;;;;5055874;28;20112;-90
2024/02/20 03:33:39;;;;;;;29.73;5.00;;;7.00;99.90;;;;;;5073668;28;20024;-90
2024/02/20 03:36:06;;;;;;;27.45;4.97;;;6.90;99.90;;;;;;5074210;28;20095;-90
2024/02/20 03:38:31;;;;;;;29.10;5.13;;;7.00;99.90;;;;;;5059385;28;20029;-89
2024/02/20 03:40:57;;;;;;;32.30;5.28;;;7.00;99.90;;;;;;5060140;28;20028;-90
2024/02/20 03:43:23;;;;;;;39.88;5.75;;;6.90;99.90;;;;;;5059895;28;20063;-90
2024/02/20 03:45:49;;;;;;;35.10;4.63;;;6.90;99.90;;;;;;5059821;28;20452;-89
2024/02/20 03:48:14;;;;;;;22.67;4.10;;;6.90;99.90;;;;;;5060088;28;20066;-89
2024/02/20 03:50:41;;;;;;;33.10;5.80;;;6.90;99.90;;;;;;5059897;28;20024;-89
2024/02/20 03:53:07;;;;;;;29.60;6.28;;;6.90;99.90;;;;;;5059837;28;20051;-89
2024/02/20 03:55:32;;;;;;;34.65;5.70;;;6.90;99.90;;;;;;5059470;28;20025;-88
2024/02/20 03:58:01;;;;;;;25.83;3.90;;;6.90;99.90;;;;;;5059667;28;20028;-90
2024/02/20 04:00:26;;;;;;;36.53;4.57;;;6.80;99.90;;;;;;5059806;28;20119;-89
2024/02/20 04:02:56;;;;;;;34.33;4.65;;;6.80;99.90;;;;;;5042929;28;20415;-90
2024/02/20 04:05:22;;;;;;;26.50;5.97;;;6.80;99.90;;;;;;5043388;28;20131;-90
2024/02/20 04:07:49;;;;;;;24.30;4.70;;;6.80;99.90;;;;;;5059357;28;20547;-89
2024/02/20 04:10:16;;;;;;;34.33;4.85;;;6.80;99.90;;;;;;5059531;28;20048;-89
2024/02/20 04:12:42;;;;;;;26.65;4.80;;;6.80;99.90;;;;;;5059509;28;20021;-90
2024/02/20 04:15:10;;;;;;;35.28;4.35;;;6.80;99.90;;;;;;5059807;28;20028;-90
2024/02/20 04:17:36;;;;;;;34.90;4.28;;;6.70;99.90;;;;;;5059776;28;20048;-90
2024/02/20 04:20:08;;;;;;;19.25;3.90;;;6.80;99.90;;;;;;5059747;28;20031;-89
2024/02/20 04:22:37;;;;;;;31.85;4.28;;;6.70;99.90;;;;;;5069530;28;20024;-89
2024/02/20 04:25:05;;;;;;;40.85;6.13;;;6.70;99.90;;;;;;5072738;28;20025;-90
2024/02/20 04:27:30;;;;;;;36.40;4.68;;;6.70;99.90;;;;;;5064421;28;20017;-88
2024/02/20 04:29:57;;;;;;;26.65;4.30;;;6.70;99.90;;;;;;5081835;28;20040;-90
2024/02/20 04:32:23;;;;;;;31.27;4.22;;;6.70;99.90;;;;;;5059516;28;20020;-88
2024/02/20 04:34:49;;;;;;;28.05;4.22;;;6.60;99.90;;;;;;5059215;28;20055;-90
2024/02/20 04:37:16;;;;;;;41.00;4.82;;;6.60;99.90;;;;;;5075916;28;20044;-90
2024/02/20 04:39:46;;;;;;;26.73;5.00;;;6.60;99.90;;;;;;5058958;28;20027;-89
2024/02/20 04:42:12;;;;;;;35.80;4.93;;;6.60;99.90;;;;;;5058699;28;20048;-90
2024/02/20 04:44:38;;;;;;;39.30;6.38;;;6.60;99.90;;;;;;5058443;28;20497;-90
2024/02/20 04:47:07;;;;;;;34.72;5.07;;;6.60;99.90;;;;;;5058612;28;20025;-89
2024/02/20 04:49:34;;;;;;;30.33;4.63;;;6.60;99.90;;;;;;5058790;28;20077;-89
2024/02/20 04:52:00;;;;;;;34.40;4.90;;;6.60;99.90;;;;;;5058648;28;20075;-90
2024/02/20 04:54:26;;;;;;;33.67;4.90;;;6.60;99.90;;;;;;5058945;28;20508;-89
2024/02/20 04:56:52;;;;;;;41.67;4.43;;;6.60;99.90;;;;;;5041574;28;20028;-90
2024/02/20 04:59:19;;;;;;;27.35;4.95;;;6.60;99.90;;;;;;5058648;28;20035;-90
2024/02/20 05:01:46;;;;;;;35.22;7.00;;;6.60;99.90;;;;;;5058668;28;20033;-89
2024/02/20 05:04:12;;;;;;;22.65;3.67;;;6.60;99.90;;;;;;5058297;28;20564;-90
2024/02/20 05:06:38;;;;;;;23.17;4.40;;;6.60;99.90;;;;;;5058030;28;20031;-89
2024/02/20 05:09:05;;;;;;;30.85;4.65;;;6.60;99.90;;;;;;5058233;28;20021;-89
2024/02/20 05:11:31;;;;;;;27.38;3.63;;;6.60;99.90;;;;;;5058265;28;20020;-89
2024/02/20 05:13:57;;;;;;;45.17;8.10;;;6.60;99.90;;;;;;5057844;28;20058;-90
2024/02/20 05:16:23;;;;;;;43.55;5.97;;;6.70;99.90;;;;;;5057663;28;20020;-89
2024/02/20 05:18:49;;;;;;;31.20;4.55;;;6.60;99.90;;;;;;5057963;28;20029;-88
2024/02/20 05:21:14;;;;;;;30.48;3.88;;;6.60;99.90;;;;;;5058075;28;20081;-90
2024/02/20 05:23:40;;;;;;;27.35;4.07;;;6.60;99.90;;;;;;5058048;28;20091;-89
2024/02/20 05:26:06;;;;;;;24.83;4.53;;;6.60;99.90;;;;;;5058479;28;20025;-89
2024/02/20 05:28:32;;;;;;;43.03;5.00;;;6.60;99.90;;;;;;5057484;28;20025;-89
2024/02/20 05:30:58;;;;;;;33.53;4.65;;;6.60;99.90;;;;;;5075375;28;20400;-89
2024/02/20 05:33:23;;;;;;;21.10;3.85;;;6.60;99.90;;;;;;5057749;28;20111;-91
2024/02/20 05:35:49;;;;;;;35.13;3.78;;;6.60;99.90;;;;;;5056478;28;20045;-89
2024/02/20 05:38:16;;;;;;;30.92;3.70;;;6.60;99.90;;;;;;5056842;28;20024;-90
2024/02/20 05:40:42;;;;;;;33.15;4.10;;;6.60;99.90;;;;;;5056434;28;20036;-89
2024/02/20 05:43:08;;;;;;;32.42;4.63;;;6.60;99.90;;;;;;5056379;28;20037;-88
2024/02/20 05:45:34;;;;;;;30.25;5.28;;;6.60;99.90;;;;;;5056407;28;20432;-90
2024/02/20 05:48:03;;;;;;;36.45;4.95;;;6.60;99.90;;;;;;5056563;28;20030;-89
2024/02/20 05:50:30;;;;;;;23.17;3.70;;;6.60;99.90;;;;;;5056979;28;20029;-90
2024/02/20 05:52:55;;;;;;;20.25;3.45;;;6.60;99.90;;;;;;5056859;28;20128;-89
2024/02/20 05:55:21;;;;;;;23.92;3.72;;;6.60;99.90;;;;;;5056923;28;20035;-90
2024/02/20 05:57:47;;;;;;;27.42;4.20;;;6.60;99.90;;;;;;5056893;28;20024;-90
2024/02/20 06:00:13;;;;;;;28.52;4.75;;;6.60;99.90;;;;;;5056797;28;20036;-89
2024/02/20 06:02:39;;;;;;;41.20;5.07;;;6.70;99.90;;;;;;5074584;28;20021;-90
2024/02/20 06:05:07;;;;;;;30.55;3.92;;;6.70;99.90;;;;;;5055892;28;20044;-89
2024/02/20 06:07:32;;;;;;;34.80;4.72;;;6.70;99.90;;;;;;5056559;28;20389;-89
2024/02/20 06:09:58;;;;;;;35.28;6.07;;;6.70;99.90;;;;;;5056003;28;20032;-89
2024/02/20 06:12:24;;;;;;;34.40;4.38;;;6.70;99.90;;;;;;5055963;28;20017;-89
2024/02/20 06:14:49;;;;;;;30.52;4.90;;;6.60;99.90;;;;;;5055632;28;20088;-88
2024/02/20 06:17:15;;;;;;;22.73;3.75;;;6.60;99.90;;;;;;5055868;28;20089;-87
2024/02/20 06:19:42;;;;;;;30.67;7.20;;;6.60;99.90;;;;;;5056207;28;20074;-90
2024/02/20 06:22:08;;;;;;;28.80;4.43;;;6.70;99.90;;;;;;5056330;28;20024;-89
2024/02/20 06:24:34;;;;;;;24.33;4.20;;;6.70;99.90;;;;;;5055764;28;20032;-92
2024/02/20 06:27:02;;;;;;;28.45;4.03;;;6.70;99.90;;;;;;5056101;28;20028;-89
2024/02/20 06:29:28;;;;;;;23.40;3.88;;;6.60;99.90;;;;;;5056217;28;20027;-91
2024/02/20 06:31:54;;;;;;;27.65;3.40;;;6.60;99.90;;;;;;5055887;28;20021;-89
2024/02/20 06:34:20;;;;;;;31.85;6.07;;;6.60;99.90;;;;;;5056225;28;20177;-90
2024/02/20 06:36:46;;;;;;;21.73;3.10;;;6.60;99.90;;;;;;5055923;28;20044;-90
2024/02/20 06:39:12;;;;;;;28.30;4.80;;;6.50;99.90;;;;;;5055409;28;20035;-89
2024/02/20 06:41:37;;;;;;;17.80;2.40;;;6.50;99.90;;;;;;5073038;28;20033;-90
2024/02/20 06:44:03;;;;;;;24.33;3.78;;;6.50;99.90;;;;;;5055629;28;20036;-90
2024/02/20 06:46:29;;;;;;;26.33;3.88;;;6.50;99.90;;;;;;5056005;28;20177;-90
2024/02/20 06:48:54;;;;;;;22.35;3.53;;;6.50;99.90;;;;;;5055911;28;20350;-89
2024/02/20 06:51:24;;;;;;;25.95;3.20;;;6.50;99.90;;;;;;5056127;28;20021;-91
2024/02/20 06:53:50;;;;;;;19.80;3.38;;;6.50;99.90;;;;;;5056519;28;20055;-89
2024/02/20 06:56:15;;;;;;;22.67;3.03;;;6.50;99.90;;;;;;5039682;28;20025;-90
2024/02/20 06:58:41;;;;;;;25.67;3.05;;;6.60;99.90;;;;;;5056400;28;20028;-89
2024/02/20 07:01:08;;;;;;;27.38;5.43;;;6.60;99.90;;;;;;5056535;28;20492;-89
2024/02/20 07:03:33;;;;;;;20.27;4.97;;;6.60;99.90;;;;;;5056214;28;20029;-89
2024/02/20 07:05:59;;;;;;;35.88;5.47;;;6.60;99.90;;;;;;5056171;28;20021;-90
2024/02/20 07:08:25;;;;;;;15.80;2.70;;;6.60;99.90;;;;;;5057689;28;20193;-89
2024/02/20 07:10:50;;;;;;;17.35;3.63;;;6.60;99.90;;;;;;5068495;28;20044;-89
2024/02/20 07:13:19;;;;;;;22.48;2.70;;;6.70;99.90;;;;;;5069076;28;20032;-89
2024/02/20 07:15:45;;;;;;;20.42;3.58;;;6.70;99.90;;;;;;5078374;28;20021;-89
2024/02/20 07:18:11;;;;;;;17.95;2.92;;;6.70;99.90;;;;;;5064863;28;20029;-89
2024/02/20 07:20:37;;;;;;;26.65;3.10;;;6.80;99.90;;;;;;5059924;28;20115;-89
2024/02/20 07:23:03;;;;;;;25.23;3.85;;;6.80;99.90;;;;;;5060004;28;20693;-89
2024/02/20 07:25:29;;;;;;;19.27;3.30;;;6.80;99.90;;;;;;5059513;28;20032;-89
2024/02/20 07:27:55;;;;;;;19.05;2.90;;;6.80;99.90;;;;;;5059520;28;20073;-89
2024/02/20 07:30:20;;;;;;;23.92;4.65;;;6.90;99.90;;;;;;5059638;28;20024;-89
2024/02/20 07:32:46;;;;;;;17.08;4.53;;;6.90;99.90;;;;;;5059608;28;20539;-89
2024/02/20 07:35:13;;;;;;;20.20;3.90;;;7.00;99.90;;;;;;5059320;28;20032;-89
2024/02/20 07:37:41;;;;;;;23.40;6.40;;;7.00;99.90;;;;;;5059556;28;20048;-89
2024/02/20 07:40:11;;;;;;;24.42;4.35;;;7.10;99.90;;;;;;5059424;28;20111;-90
2024/02/20 07:42:40;;;;;;;18.15;3.65;;;7.10;99.90;;;;;;5060054;28;20050;-89
2024/02/20 07:45:08;;;;;;;10.30;3.30;;;7.20;99.90;;;;;;5060070;28;20043;-89
2024/02/20 07:47:34;;;;;;;16.73;3.70;;;7.20;99.90;;;;;;5059793;28;20086;-89
2024/02/20 07:50:01;;;;;;;18.05;3.58;;;7.30;99.90;;;;;;5060358;28;20033;-89
2024/02/20 07:52:27;;;;;;;19.77;3.83;;;7.40;99.90;;;;;;5059763;28;20048;-90
2024/02/20 07:54:53;;;;;;;17.75;3.38;;;7.40;99.90;;;;;;5059351;28;20075;-90
2024/02/20 07:57:18;;;;;;;17.13;2.85;;;7.50;99.90;;;;;;5059248;28;20032;-90
2024/02/20 07:59:46;;;;;;;20.45;3.80;;;7.60;99.90;;;;;;5059231;28;20129;-91
2024/02/20 08:02:14;;;;;;;15.90;2.47;;;7.60;99.90;;;;;;5059123;28;20036;-89
2024/02/20 08:04:41;;;;;;;23.88;4.43;;;7.70;99.90;;;;;;5059235;28;20501;-89
2024/02/20 08:07:06;;;;;;;11.82;3.03;;;7.70;99.90;;;;;;5042551;28;20496;-90
2024/02/20 08:09:33;;;;;;;13.10;3.45;;;7.70;99.90;;;;;;5078225;28;20024;-90
2024/02/20 08:11:58;;;;;;;17.23;3.20;;;7.80;99.90;;;;;;5059249;28;20024;-89
2024/02/20 08:14:25;;;;;;;22.85;3.33;;;7.80;99.90;;;;;;5060118;28;20025;-89
2024/02/20 08:16:51;;;;;;;25.65;3.55;;;7.80;99.90;;;;;;5061293;28;20028;-89
2024/02/20 08:19:17;;;;;;;21.85;3.65;;;7.80;99.90;;;;;;5043611;28;20032;-90
2024/02/20 08:21:44;;;;;;;15.75;3.70;;;7.90;99.90;;;;;;5059409;28;20109;-89
2024/02/20 08:24:15;;;;;;;19.48;4.03;;;7.90;99.90;;;;;;5059574;28;20036;-89
2024/02/20 08:26:40;;;;;;;12.50;3.47;;;7.90;99.90;;;;;;5059378;28;20028;-90
2024/02/20 08:29:08;;;;;;;14.00;3.47;;;7.90;99.90;;;;;;5059466;28;20568;-90
2024/02/20 08:31:39;;;;;;;16.45;2.80;;;8.00;99.90;;;;;;5060018;28;20025;-89
2024/02/20 08:34:04;;;;;;;;;;;8.00;99.90;;;;;;5059705;28;20024;-89
2024/02/20 08:36:30;;;;;;;10.82;2.80;;;8.10;99.90;;;;;;5058612;28;19919;-89
2024/02/20 08:38:57;;;;;;;14.25;3.15;;;8.10;99.90;;;;;;5059409;28;20029;-90
2024/02/20 08:41:23;;;;;;;16.05;3.03;;;8.10;99.90;;;;;;5059222;28;20036;-89
2024/02/20 08:43:50;;;;;;;13.85;2.70;;;8.10;99.90;;;;;;5058778;28;20047;-89
2024/02/20 08:46:16;;;;;;;9.90;4.25;;;8.20;99.90;;;;;;5058665;28;20025;-89
2024/02/20 08:48:42;;;;;;;12.18;3.88;;;8.20;99.90;;;;;;5058913;28;20109;-89
2024/02/20 08:51:09;;;;;;;8.80;2.58;;;8.30;99.90;;;;;;5058442;28;20071;-89
2024/02/20 08:53:35;;;;;;;8.63;2.88;;;8.30;99.90;;;;;;5077294;28;20108;-89
2024/02/20 08:56:03;;;;;;;12.15;2.40;;;8.40;99.90;;;;;;5059011;28;20056;-89
2024/02/20 08:58:28;;;;;;;8.68;3.58;;;8.50;99.90;;;;;;5058691;28;20028;-90
2024/02/20 09:00:54;;;;;;;13.98;4.63;;;8.60;99.90;;;;;;5059005;28;20028;-90
2024/02/20 09:03:20;;;;;;;14.05;4.95;;;8.60;99.90;;;;;;5059153;28;20484;-89
2024/02/20 09:05:47;;;;;;;8.07;3.85;;;8.70;99.90;;;;;;5058507;28;20026;-90
2024/02/20 09:08:14;;;;;;;10.75;3.08;;;8.70;99.90;;;;;;5059035;28;20033;-90
2024/02/20 09:10:40;;;;;;;6.18;2.67;;;8.70;99.90;;;;;;5075980;28;20044;-90
2024/02/20 09:13:06;;;;;;;9.02;2.38;;;8.80;99.90;;;;;;5090253;28;20049;-89
2024/02/20 09:15:34;;;;;;;9.52;2.40;;;8.90;99.90;;;;;;5065172;28;20027;-89
2024/02/20 09:17:59;;;;;;;10.70;2.15;;;8.90;99.90;;;;;;5066215;28;20104;-90
2024/02/20 09:20:25;;;;;;;5.10;3.25;;;8.90;99.90;;;;;;5062859;28;20064;-89
2024/02/20 09:22:51;;;;;;;10.57;1.80;;;9.00;99.90;;;;;;5058089;28;20028;-90
2024/02/20 09:25:16;;;;;;;6.57;1.90;;;9.00;99.90;;;;;;5058201;28;20037;-89
2024/02/20 09:27:43;;;;;;;9.00;2.00;;;9.10;99.90;;;;;;5075746;28;20041;-90
2024/02/20 09:30:10;;;;;;;7.47;2.22;;;9.10;99.90;;;;;;5058026;28;20032;-90
2024/02/20 09:32:37;;;;;;;8.80;1.67;;;9.20;99.90;;;;;;5057615;28;20025;-90
2024/02/20 09:35:03;;;;;;;6.60;1.40;;;9.20;99.90;;;;;;5056393;28;20020;-89
2024/02/20 09:37:29;;;;;;;7.38;2.00;;;9.30;99.90;;;;;;5057134;28;20040;-90
2024/02/20 09:39:56;;;;;;;5.47;2.08;;;9.30;99.90;;;;;;5057625;28;20131;-90
2024/02/20 09:42:24;;;;;;;4.85;2.03;;;9.40;99.90;;;;;;5057267;28;20489;-91
2024/02/20 09:44:54;;;;;;;5.00;1.50;;;9.40;99.90;;;;;;5057442;28;20110;-89
2024/02/20 09:47:22;;;;;;;4.57;1.40;;;9.40;99.90;;;;;;5041013;28;20021;-91
2024/02/20 09:49:53;;;;;;;5.38;1.30;;;9.50;99.90;;;;;;5057498;28;20033;-90
2024/02/20 09:52:20;;;;;;;5.93;1.50;;;9.60;99.90;;;;;;5057046;28;20150;-89
2024/02/20 09:54:48;;;;;;;4.90;1.75;;;9.60;99.90;;;;;;5057454;28;20028;-89
2024/02/20 09:57:15;;;;;;;3.97;1.33;;;9.70;99.90;;;;;;5057082;28;20037;-90
2024/02/20 09:59:42;;;;;;;7.75;1.70;;;9.70;99.90;;;;;;5056913;28;20024;-89
2024/02/20 10:02:12;;;;;;;7.93;1.13;;;9.80;99.90;;;;;;5040368;28;20056;-90
2024/02/20 10:04:40;;;;;;;4.03;1.27;;;9.90;99.90;;;;;;5056843;28;20059;-90
2024/02/20 10:07:06;;;;;;;3.83;1.40;;;10.00;99.90;;;;;;5057164;28;20542;-89
2024/02/20 10:09:31;;;;;;;3.15;0.82;;;10.00;99.90;;;;;;5057835;28;20024;-90
2024/02/20 10:11:57;;;;;;;2.83;1.08;;;10.20;99.90;;;;;;5057138;28;20028;-91
2024/02/20 10:14:29;;;;;;;4.50;1.15;;;10.30;99.90;;;;;;5056921;28;20384;-91
2024/02/20 10:17:00;;;;;;;4.13;0.90;;;10.40;99.90;;;;;;5056711;28;20024;-89
2024/02/20 10:19:26;;;;;;;2.55;0.70;;;10.50;99.90;;;;;;5056755;28;20040;-90
2024/02/20 10:21:52;;;;;;;3.80;1.60;;;10.70;99.90;;;;;;5056739;28;20020;-90
2024/02/20 10:24:18;;;;;;;7.55;0.80;;;10.90;99.90;;;;;;5056610;28;20497;-90
2024/02/20 10:26:46;;;;;;;5.10;0.88;;;11.20;99.90;;;;;;5056713;28;20071;-90
2024/02/20 10:29:13;;;;;;;2.90;0.93;;;11.60;99.90;;;;;;5056977;28;20020;-89
2024/02/20 10:31:40;;;;;;;1.17;0.55;;;11.90;99.90;;;;;;5056801;28;20031;-90
2024/02/20 10:34:06;;;;;;;3.92;0.85;;;12.10;99.90;;;;;;5056522;28;20029;-90
2024/02/20 10:36:32;;;;;;;1.20;0.57;;;12.20;99.90;;;;;;5053174;28;20045;-90
2024/02/20 10:39:05;;;;;;;4.93;0.82;;;12.40;99.90;;;;;;5053752;28;20025;-90
2024/02/20 10:41:31;;;;;;;3.35;0.70;;;12.70;99.90;;;;;;5053458;28;20024;-90
2024/02/20 10:43:58;;;;;;;1.33;0.57;;;13.00;99.90;;;;;;5053129;28;20037;-89
2024/02/20 10:46:26;;;;;;;4.25;0.70;;;13.20;99.90;;;;;;5052959;28;20083;-90
2024/02/20 10:48:56;;;;;;;1.83;0.70;;;13.40;99.90;;;;;;5054915;28;20040;-90
2024/02/20 10:51:26;;;;;;;2.92;0.93;;;13.50;99.90;;;;;;5052826;28;20127;-90
2024/02/20 10:53:54;;;;;;;2.50;1.10;;;13.50;99.90;;;;;;5052637;28;20029;-90
2024/02/20 10:56:21;;;;;;;3.00;0.88;;;13.60;99.90;;;;;;5052674;28;20033;-90
2024/02/20 10:58:49;;;;;;;2.20;0.90;;;13.80;99.90;;;;;;5053205;28;20029;-89
2024/02/20 11:01:15;;;;;;;1.55;0.77;;;13.90;99.90;;;;;;5053956;28;20041;-90
2024/02/20 11:03:45;;;;;;;1.77;1.10;;;14.10;99.90;;;;;;5053521;28;20041;-89
2024/02/20 11:06:11;;;;;;;0.95;0.77;;;14.40;99.90;;;;;;5052332;28;20029;-89
2024/02/20 11:08:37;;;;;;;2.15;0.90;;;14.60;99.90;;;;;;5052687;28;20116;-91
2024/02/20 11:11:12;;;;;;;0.93;0.60;;;14.90;99.90;;;;;;5052381;28;20075;-89
2024/02/20 11:13:39;;;;;;;1.13;0.57;;;14.90;99.90;;;;;;5054787;28;20063;-90
2024/02/20 11:16:15;;;;;;;3.83;0.70;;;14.80;99.90;;;;;;5052324;28;20157;-89
2024/02/20 11:18:54;;;;;;;3.15;1.02;;;14.80;99.90;;;;;;5052458;28;20025;-89
2024/02/20 11:21:30;;;;;;;1.40;0.60;;;15.00;99.90;;;;;;5052381;28;20505;-90
2024/02/20 11:23:58;;;;;;;2.40;0.85;;;15.30;99.90;;;;;;5053637;28;20549;-90
2024/02/20 11:26:28;;;;;;;1.50;0.50;;;15.50;99.90;;;;;;5052081;28;20481;-90
2024/02/20 11:28:55;;;;;;;3.05;0.80;;;15.80;99.90;;;;;;5052279;28;20029;-91
2024/02/20 11:31:28;;;;;;;2.63;0.93;;;16.20;99.90;;;;;;5035848;28;20029;-91
2024/02/20 11:33:55;;;;;;;3.67;0.90;;;16.40;99.90;;;;;;5052364;28;20021;-91
2024/02/20 11:36:21;;;;;;;5.20;0.93;;;16.80;99.90;;;;;;5053458;28;20045;-90
2024/02/20 11:39:01;;;;;;;1.45;0.88;;;17.20;99.50;;;;;;5053032;28;20055;-91
2024/02/20 11:41:27;;;;;;;3.00;0.90;;;17.50;97.70;;;;;;5053832;28;20115;-89
2024/02/20 11:44:03;;;;;;;2.67;0.60;;;17.60;94.90;;;;;;5051587;28;20068;-90
2024/02/20 11:46:33;;;;;;;4.22;0.80;;;17.30;92.10;;;;;;5057104;28;20029;-89
2024/02/20 11:49:00;;;;;;;0.95;0.50;;;17.20;92.70;;;;;;5053411;28;20294;-90
2024/02/20 11:51:26;;;;;;;5.30;1.25;;;17.20;93.40;;;;;;5052222;28;20051;-89
2024/02/20 11:54:12;;;;;;;6.88;0.95;;;17.00;92.60;;;;;;5052332;28;20051;-90
2024/02/20 11:56:39;;;;;;;4.35;0.70;;;16.60;92.00;;;;;;5052585;28;20025;-89
2024/02/20 11:59:08;;;;;;;3.08;0.60;;;16.30;91.90;;;;;;5056991;28;20470;-89
2024/02/20 12:01:34;;;;;;;1.55;0.43;;;16.10;92.00;;;;;;5057019;28;20024;-89
2024/02/20 12:04:06;;;;;;;3.33;0.95;;;15.80;92.60;;;;;;5056652;28;20029;-89
2024/02/20 12:06:35;;;;;;;2.35;0.63;;;15.60;92.80;;;;;;5056536;28;20028;-90
2024/02/20 12:09:02;;;;;;;2.40;0.80;;;15.40;93.50;;;;;;5056332;28;20025;-88
2024/02/20 12:11:29;;;;;;;1.90;0.80;;;15.30;93.80;;;;;;5057170;28;20025;-88
2024/02/20 12:13:59;;;;;;;3.65;0.60;;;15.00;94.50;;;;;;5039313;28;20124;-88
2024/02/20 12:16:29;;;;;;;3.47;1.00;;;14.80;95.30;;;;;;5055678;28;20017;-89
2024/02/20 12:18:57;;;;;;;5.13;0.57;;;14.70;96.10;;;;;;5039277;28;20057;-88
2024/02/20 12:21:28;;;;;;;3.08;0.80;;;14.70;96.90;;;;;;5055824;28;20032;-88
2024/02/20 12:23:54;;;;;;;;;;;14.80;96.90;;;;;;5056048;28;20033;-89
2024/02/20 12:26:21;;;;;;;4.35;0.93;;;14.80;97.10;;;;;;5056809;28;19905;-89
2024/02/20 12:28:48;;;;;;;2.35;0.60;;;14.70;96.60;;;;;;5055196;28;20121;-89
2024/02/20 12:31:22;;;;;;;2.20;0.77;;;14.60;97.10;;;;;;5058629;28;20156;-88
2024/02/20 12:33:49;;;;;;;4.45;0.98;;;14.60;97.20;;;;;;5057288;28;20017;-89
2024/02/20 12:36:16;;;;;;;4.18;0.63;;;14.60;97.60;;;;;;5043704;28;20057;-88
2024/02/20 12:38:43;;;;;;;2.47;0.55;;;14.80;98.00;;;;;;5069098;28;20031;-88
2024/02/20 12:41:09;;;;;;;2.67;0.90;;;14.90;97.90;;;;;;5067825;28;20033;-89
2024/02/20 12:43:35;;;;;;;3.67;0.88;;;15.00;97.30;;;;;;5065745;28;20043;-88
2024/02/20 12:46:02;;;;;;;2.75;0.80;;;14.90;96.50;;;;;;5057332;28;20063;-89
2024/02/20 12:48:28;;;;;;;1.88;0.80;;;14.80;96.70;;;;;;5057755;28;20139;-89